Terminal Aerodrome Forecast
Issued by NWS

Home | Current Version | Previous Version | Text Only | Print | Product List | Glossary On
Versions: 1 2 3 4 5 6 7 8 9 10 11 12 13 14 15 16 17 18 19 20 21 22 23 24 25 26 27 28 29 30 31 32 33 34 35 36 37 38 39 40
433
FTAK31 PANC 231733
TAFADL
TAF
PADL 231733Z 2318/2418 19010KT P6SM SCT025 BKN035
     FM232300 14014G22KT P6SM VCSH BKN030
     FM240600 12020G30KT 5SM RA BR BKN020 OVC030
     FM241200 12018G30KT 3SM -RA BR SCT007 OVC015=

USA.gov is the U.S. government's official web portal to all federal, state and local government web resources and services.